createdAt,value
2023-02-07T00:00:10.132Z,99.99
2023-02-07T00:01:10.115Z,99.99
2023-02-07T00:02:10.168Z,99.99
2023-02-07T00:03:10.171Z,99.99
2023-02-07T00:04:10.123Z,99.99
2023-02-07T00:05:10.124Z,99.99
2023-02-07T00:06:10.134Z,99.99
2023-02-07T00:07:10.117Z,99.99
2023-02-07T00:08:10.131Z,99.99
2023-02-07T00:09:10.122Z,99.99
2023-02-07T00:10:10.133Z,99.99
2023-02-07T00:11:10.119Z,99.99
2023-02-07T00:12:10.125Z,99.99
2023-02-07T00:13:10.120Z,99.99
2023-02-07T00:14:10.128Z,99.99
2023-02-07T00:15:10.123Z,99.99
2023-02-07T00:16:10.156Z,99.99
2023-02-07T00:17:10.121Z,99.99
2023-02-07T00:18:10.152Z,99.99
2023-02-07T00:19:10.125Z,99.99
2023-02-07T00:20:10.132Z,99.99
2023-02-07T00:21:10.126Z,99.99
2023-02-07T00:22:10.129Z,99.99
2023-02-07T00:23:10.126Z,99.99
2023-02-07T00:24:10.132Z,99.99
2023-02-07T00:25:10.126Z,99.99
2023-02-07T00:26:10.132Z,99.99
2023-02-07T00:27:10.129Z,99.99
2023-02-07T00:28:10.259Z,99.99
2023-02-07T00:29:10.131Z,99.99
2023-02-07T00:30:10.137Z,99.99
2023-02-07T00:31:10.381Z,99.99
2023-02-07T00:32:10.138Z,99.99
2023-02-07T00:33:10.140Z,99.99
2023-02-07T00:34:10.162Z,99.99
2023-02-07T00:35:10.141Z,99.99
2023-02-07T00:36:10.154Z,99.99
2023-02-07T00:37:10.141Z,99.99
2023-02-07T00:38:10.147Z,99.99
2023-02-07T00:39:10.263Z,99.99
2023-02-07T00:40:10.146Z,99.99
2023-02-07T00:41:10.153Z,99.99
2023-02-07T00:42:10.152Z,99.99
2023-02-07T00:43:12.905Z,99.99
2023-02-07T00:44:10.156Z,99.99
2023-02-07T00:45:10.150Z,99.99
2023-02-07T00:46:10.206Z,99.99
2023-02-07T00:47:10.154Z,99.99
2023-02-07T00:48:10.156Z,99.99
2023-02-07T00:49:10.159Z,99.99
2023-02-07T00:50:10.183Z,99.99
2023-02-07T00:51:10.159Z,99.99
2023-02-07T00:52:10.167Z,99.99
2023-02-07T00:53:10.163Z,99.99
2023-02-07T00:54:10.166Z,99.99
2023-02-07T00:55:10.162Z,99.99
2023-02-07T00:56:10.167Z,99.99
2023-02-07T00:57:10.163Z,99.99
2023-02-07T00:58:10.272Z,99.99
2023-02-07T00:59:10.168Z,99.99
2023-02-07T01:00:10.196Z,99.99
2023-02-07T01:01:10.199Z,99.99
2023-02-07T01:02:10.175Z,99.99
2023-02-07T01:03:10.178Z,99.99
2023-02-07T01:04:10.176Z,99.99
2023-02-07T01:05:10.175Z,99.99
2023-02-07T01:06:10.204Z,99.99
2023-02-07T01:07:10.183Z,99.99
2023-02-07T01:08:10.183Z,99.99
2023-02-07T01:09:10.182Z,99.99
2023-02-07T01:10:10.186Z,99.99
2023-02-07T01:11:10.183Z,99.99
2023-02-07T01:12:10.190Z,99.99
2023-02-07T01:13:10.189Z,99.99
2023-02-07T01:14:10.191Z,99.99
2023-02-07T01:15:10.191Z,99.99
2023-02-07T01:16:10.259Z,99.99
2023-02-07T01:17:10.192Z,99.99
2023-02-07T01:18:10.194Z,99.99
2023-02-07T01:19:10.191Z,99.99
2023-02-07T01:20:10.200Z,99.99
2023-02-07T01:21:10.192Z,99.99
2023-02-07T01:22:10.220Z,99.99
2023-02-07T01:23:10.195Z,99.99
2023-02-07T01:24:10.204Z,99.99
2023-02-07T01:25:10.198Z,99.99
2023-02-07T01:26:10.199Z,99.99
2023-02-07T01:27:10.201Z,99.99
2023-02-07T01:28:10.261Z,99.99
2023-02-07T01:29:10.215Z,99.99
2023-02-07T01:30:10.207Z,99.99
2023-02-07T01:31:10.361Z,99.99
2023-02-07T01:32:10.211Z,99.99
2023-02-07T01:33:10.206Z,99.99
2023-02-07T01:34:10.210Z,99.99
2023-02-07T01:35:10.208Z,99.99
2023-02-07T01:36:10.218Z,99.99
2023-02-07T01:37:10.207Z,99.99
2023-02-07T01:38:10.239Z,99.99
2023-02-07T01:39:10.211Z,99.99
2023-02-07T01:40:10.224Z,99.99
2023-02-07T01:41:10.213Z,99.99
2023-02-07T01:42:10.220Z,99.99
2023-02-07T01:43:10.217Z,99.99
2023-02-07T01:44:10.216Z,99.99
2023-02-07T01:45:10.216Z,99.99
2023-02-07T01:46:10.255Z,99.99
2023-02-07T01:47:10.216Z,99.99
2023-02-07T01:48:10.236Z,99.46
2023-02-07T01:49:10.222Z,98.71
2023-02-07T01:50:10.221Z,98.56
2023-02-07T01:51:10.221Z,98.75
2023-02-07T01:52:10.223Z,99.99
2023-02-07T01:53:10.224Z,99.99
2023-02-07T01:54:10.256Z,99.99
2023-02-07T01:55:10.226Z,99.99
2023-02-07T01:56:13.424Z,99.99
2023-02-07T01:57:10.228Z,99.99
2023-02-07T01:58:10.232Z,99.99
2023-02-07T01:59:10.236Z,99.99
2023-02-07T02:00:10.229Z,99.99
2023-02-07T02:01:10.250Z,99.99
2023-02-07T02:02:10.231Z,99.99
2023-02-07T02:03:10.232Z,99.99
2023-02-07T02:04:10.240Z,99.99
2023-02-07T02:05:10.328Z,99.99
2023-02-07T02:06:10.236Z,99.99
2023-02-07T02:07:10.253Z,99.99
2023-02-07T02:08:10.246Z,99.32
2023-02-07T02:09:10.233Z,99.13
2023-02-07T02:10:10.263Z,99.03
2023-02-07T02:11:10.237Z,99.41
2023-02-07T02:12:10.242Z,99.32
2023-02-07T02:13:10.257Z,98.37
2023-02-07T02:14:10.245Z,97.33
2023-02-07T02:15:10.238Z,96.48
2023-02-07T02:16:10.297Z,94.13
2023-02-07T02:17:10.238Z,86.68
2023-02-07T02:18:10.256Z,84.41
2023-02-07T02:19:10.243Z,85.26
2023-02-07T02:20:10.245Z,87.52
2023-02-07T02:21:10.247Z,88.56
2023-02-07T02:22:10.246Z,90.07
2023-02-07T02:23:10.245Z,91.67
2023-02-07T02:24:10.252Z,92.33
2023-02-07T02:25:10.258Z,92.14
2023-02-07T02:26:10.270Z,92.14
2023-02-07T02:27:10.252Z,89.79
2023-02-07T02:28:10.304Z,87.15
2023-02-07T02:29:10.245Z,85.73
2023-02-07T02:30:10.257Z,85.64
2023-02-07T02:31:10.347Z,83.84
2023-02-07T02:32:10.266Z,83.84
2023-02-07T02:33:10.260Z,85.26
2023-02-07T02:34:10.254Z,86.49
2023-02-07T02:35:10.254Z,88.65
2023-02-07T02:36:10.255Z,89.03
2023-02-07T02:37:10.251Z,88.94
2023-02-07T02:38:10.252Z,88.94
2023-02-07T02:39:10.257Z,89.51
2023-02-07T02:40:10.271Z,90.07
2023-02-07T02:41:10.253Z,90.26
2023-02-07T02:42:10.279Z,91.30
2023-02-07T02:43:10.254Z,91.39
2023-02-07T02:44:10.260Z,91.77
2023-02-07T02:45:10.270Z,91.49
2023-02-07T02:46:10.294Z,91.30
2023-02-07T02:47:10.261Z,90.17
2023-02-07T02:48:10.259Z,85.45
2023-02-07T02:49:10.261Z,81.96
2023-02-07T02:50:10.272Z,80.17
2023-02-07T02:51:10.260Z,79.32
2023-02-07T02:52:10.262Z,79.03
2023-02-07T02:53:10.275Z,79.41
2023-02-07T02:54:10.266Z,79.98
2023-02-07T02:55:10.268Z,79.98
2023-02-07T02:56:10.265Z,80.92
2023-02-07T02:57:10.268Z,81.68
2023-02-07T02:58:10.285Z,81.30
2023-02-07T02:59:10.268Z,80.45
2023-02-07T03:00:10.274Z,80.36
2023-02-07T03:01:10.277Z,80.92
2023-02-07T03:02:10.272Z,81.68
2023-02-07T03:03:10.302Z,81.68
2023-02-07T03:04:10.273Z,82.15
2023-02-07T03:05:10.300Z,82.15
2023-02-07T03:06:10.265Z,82.81
2023-02-07T03:07:10.268Z,83.09
2023-02-07T03:08:10.271Z,83.00
2023-02-07T03:09:10.271Z,82.81
2023-02-07T03:10:10.269Z,82.43
2023-02-07T03:11:10.270Z,82.06
2023-02-07T03:12:10.267Z,82.43
2023-02-07T03:13:10.269Z,82.62
2023-02-07T03:14:10.298Z,83.18
2023-02-07T03:15:10.273Z,84.13
2023-02-07T03:16:10.284Z,85.64
2023-02-07T03:17:10.272Z,86.21
2023-02-07T03:18:10.266Z,86.11
2023-02-07T03:19:10.275Z,86.11
2023-02-07T03:20:10.269Z,85.83
2023-02-07T03:21:10.270Z,86.21
2023-02-07T03:22:10.266Z,86.87
2023-02-07T03:23:10.280Z,86.96
2023-02-07T03:24:10.267Z,86.68
2023-02-07T03:25:10.277Z,85.83
2023-02-07T03:26:10.265Z,84.60
2023-02-07T03:27:10.271Z,84.41
2023-02-07T03:28:10.288Z,84.69
2023-02-07T03:29:10.282Z,84.79
2023-02-07T03:30:10.295Z,84.03
2023-02-07T03:31:10.349Z,84.13
2023-02-07T03:32:10.265Z,83.56
2023-02-07T03:33:10.291Z,83.00
2023-02-07T03:34:10.275Z,82.81
2023-02-07T03:35:10.266Z,82.06
2023-02-07T03:36:10.266Z,81.30
2023-02-07T03:37:10.268Z,80.64
2023-02-07T03:38:10.264Z,79.98
2023-02-07T03:39:10.296Z,80.36
2023-02-07T03:40:10.266Z,80.17
2023-02-07T03:41:10.285Z,79.98
2023-02-07T03:42:10.263Z,79.60
2023-02-07T03:43:10.267Z,79.03
2023-02-07T03:44:10.262Z,79.03
2023-02-07T03:45:10.267Z,79.13
2023-02-07T03:46:10.375Z,79.22
2023-02-07T03:47:10.265Z,79.03
2023-02-07T03:48:10.264Z,79.03
2023-02-07T03:49:10.266Z,78.94
2023-02-07T03:50:10.272Z,78.56
2023-02-07T03:51:10.267Z,78.47
2023-02-07T03:52:10.263Z,78.66
2023-02-07T03:53:10.275Z,78.85
2023-02-07T03:54:10.266Z,78.75
2023-02-07T03:55:10.271Z,78.56
2023-02-07T03:56:10.262Z,78.85
2023-02-07T03:57:10.269Z,79.03
2023-02-07T03:58:10.264Z,79.50
2023-02-07T03:59:10.267Z,79.32
2023-02-07T04:00:10.263Z,78.75
2023-02-07T04:01:10.301Z,78.75
2023-02-07T04:02:10.334Z,78.56
2023-02-07T04:03:10.276Z,78.66
2023-02-07T04:04:10.262Z,78.38
2023-02-07T04:05:10.372Z,77.62
2023-02-07T04:06:10.266Z,77.62
2023-02-07T04:07:10.271Z,77.81
2023-02-07T04:08:10.278Z,77.72
2023-02-07T04:09:11.885Z,78.00
2023-02-07T04:10:10.265Z,77.62
2023-02-07T04:11:10.281Z,77.91
2023-02-07T04:12:10.265Z,77.91
2023-02-07T04:13:10.268Z,77.62
2023-02-07T04:14:10.268Z,77.62
2023-02-07T04:15:10.270Z,76.87
2023-02-07T04:16:10.354Z,76.30
2023-02-07T04:17:10.271Z,75.60
2023-02-07T04:18:10.321Z,75.73
2023-02-07T04:19:10.265Z,75.79
2023-02-07T04:20:10.287Z,76.30
2023-02-07T04:21:10.269Z,76.40
2023-02-07T04:22:10.263Z,76.49
2023-02-07T04:23:10.271Z,76.77
2023-02-07T04:24:10.289Z,76.77
2023-02-07T04:25:10.279Z,76.96
2023-02-07T04:26:10.266Z,76.87
2023-02-07T04:27:10.266Z,77.15
2023-02-07T04:28:10.292Z,76.96
2023-02-07T04:29:10.264Z,76.49
2023-02-07T04:30:10.259Z,77.15
2023-02-07T04:31:10.267Z,76.96
2023-02-07T04:32:10.261Z,76.77
2023-02-07T04:33:10.268Z,76.77
2023-02-07T04:34:10.287Z,77.06
2023-02-07T04:35:10.265Z,76.96
2023-02-07T04:36:10.258Z,76.96
2023-02-07T04:37:10.273Z,77.62
2023-02-07T04:38:10.265Z,77.44
2023-02-07T04:39:10.286Z,77.72
2023-02-07T04:40:10.258Z,77.53
2023-02-07T04:41:10.270Z,77.15
2023-02-07T04:42:10.261Z,77.62
2023-02-07T04:43:10.258Z,77.25
2023-02-07T04:44:10.258Z,76.96
2023-02-07T04:45:10.259Z,76.77
2023-02-07T04:46:10.336Z,76.77
2023-02-07T04:47:10.261Z,76.02
2023-02-07T04:48:10.262Z,76.26
2023-02-07T04:49:10.256Z,76.30
2023-02-07T04:50:10.284Z,76.58
2023-02-07T04:51:10.257Z,76.30
2023-02-07T04:52:10.256Z,76.45
2023-02-07T04:53:10.255Z,75.42
2023-02-07T04:54:10.251Z,74.22
2023-02-07T04:55:10.261Z,74.98
2023-02-07T04:56:10.253Z,75.23
2023-02-07T04:57:10.262Z,75.73
2023-02-07T04:58:10.255Z,76.07
2023-02-07T04:59:10.255Z,76.54
2023-02-07T05:00:10.250Z,77.30
2023-02-07T05:01:10.283Z,77.67
2023-02-07T05:02:10.277Z,77.86
2023-02-07T05:03:10.259Z,78.24
2023-02-07T05:04:10.298Z,77.39
2023-02-07T05:05:10.255Z,77.86
2023-02-07T05:06:10.370Z,77.96
2023-02-07T05:07:10.264Z,78.52
2023-02-07T05:08:10.250Z,78.62
2023-02-07T05:09:10.258Z,78.52
2023-02-07T05:10:10.261Z,78.43
2023-02-07T05:11:10.252Z,78.81
2023-02-07T05:12:10.253Z,79.09
2023-02-07T05:13:10.272Z,78.90
2023-02-07T05:14:10.251Z,77.86
2023-02-07T05:15:10.252Z,77.77
2023-02-07T05:16:10.251Z,77.49
2023-02-07T05:17:10.254Z,77.86
2023-02-07T05:18:10.253Z,78.15
2023-02-07T05:19:10.253Z,77.58
2023-02-07T05:20:10.250Z,77.30
2023-02-07T05:21:10.353Z,77.39
2023-02-07T05:22:10.273Z,77.58
2023-02-07T05:23:10.257Z,77.58
2023-02-07T05:24:10.254Z,77.39
2023-02-07T05:25:10.249Z,77.77
2023-02-07T05:26:10.247Z,77.86
2023-02-07T05:27:10.254Z,77.58
2023-02-07T05:28:10.343Z,77.11
2023-02-07T05:29:10.248Z,76.92
2023-02-07T05:30:10.245Z,76.82
2023-02-07T05:31:10.396Z,77.11
2023-02-07T05:32:10.251Z,77.39
2023-02-07T05:33:10.249Z,76.73
2023-02-07T05:34:10.249Z,76.17
2023-02-07T05:35:10.245Z,75.98
2023-02-07T05:36:10.244Z,75.79
2023-02-07T05:37:10.245Z,76.45
2023-02-07T05:38:10.263Z,76.17
2023-02-07T05:39:10.251Z,75.70
2023-02-07T05:40:10.239Z,75.79
2023-02-07T05:41:10.241Z,75.51
2023-02-07T05:42:10.249Z,74.76
2023-02-07T05:43:10.268Z,75.04
2023-02-07T05:44:10.236Z,74.28
2023-02-07T05:45:10.238Z,74.28
2023-02-07T05:46:10.248Z,73.81
2023-02-07T05:47:10.239Z,73.91
2023-02-07T05:48:10.235Z,74.38
2023-02-07T05:49:10.240Z,74.28
2023-02-07T05:50:10.237Z,74.19
2023-02-07T05:51:10.237Z,74.19
2023-02-07T05:52:10.231Z,74.95
2023-02-07T05:53:10.234Z,74.57
2023-02-07T05:54:10.253Z,74.47
2023-02-07T05:55:10.243Z,73.91
2023-02-07T05:56:10.228Z,74.47
2023-02-07T05:57:10.237Z,74.47
2023-02-07T05:58:10.229Z,74.38
2023-02-07T05:59:10.242Z,74.38
2023-02-07T06:00:10.231Z,74.85
2023-02-07T06:01:10.228Z,75.23
2023-02-07T06:02:10.248Z,75.51
2023-02-07T06:03:10.284Z,76.07
2023-02-07T06:04:10.227Z,76.35
2023-02-07T06:05:10.226Z,76.17
2023-02-07T06:06:10.223Z,76.07
2023-02-07T06:07:10.238Z,76.64
2023-02-07T06:08:10.228Z,76.92
2023-02-07T06:09:10.227Z,76.73
2023-02-07T06:10:10.241Z,76.82
2023-02-07T06:11:10.223Z,77.11
2023-02-07T06:12:10.219Z,77.67
2023-02-07T06:13:10.231Z,77.30
2023-02-07T06:14:10.222Z,77.67
2023-02-07T06:15:10.235Z,77.86
2023-02-07T06:16:10.226Z,77.77
2023-02-07T06:17:10.222Z,77.67
2023-02-07T06:18:10.213Z,77.86
2023-02-07T06:19:10.219Z,77.67
2023-02-07T06:20:10.215Z,77.30
2023-02-07T06:21:10.215Z,77.77
2023-02-07T06:22:10.212Z,77.58
2023-02-07T06:23:10.213Z,77.67
2023-02-07T06:24:10.211Z,78.15
2023-02-07T06:25:10.469Z,77.67
2023-02-07T06:26:10.236Z,77.67
2023-02-07T06:27:10.222Z,77.67
2023-02-07T06:28:10.226Z,77.01
2023-02-07T06:29:10.211Z,76.92
2023-02-07T06:30:10.225Z,77.11
2023-02-07T06:31:10.343Z,77.11
2023-02-07T06:32:10.206Z,76.45
2023-02-07T06:33:10.215Z,76.64
2023-02-07T06:34:10.207Z,76.26
2023-02-07T06:35:10.221Z,76.45
2023-02-07T06:36:10.206Z,76.64
2023-02-07T06:37:10.211Z,76.45
2023-02-07T06:38:10.205Z,76.26
2023-02-07T06:39:10.220Z,76.26
2023-02-07T06:40:10.219Z,76.35
2023-02-07T06:41:10.210Z,76.45
2023-02-07T06:42:10.229Z,76.73
2023-02-07T06:43:10.214Z,76.54
2023-02-07T06:44:10.207Z,76.64
2023-02-07T06:45:10.223Z,76.26
2023-02-07T06:46:10.204Z,76.17
2023-02-07T06:47:10.203Z,75.98
2023-02-07T06:48:10.201Z,75.79
2023-02-07T06:49:10.203Z,75.79
2023-02-07T06:50:10.203Z,76.35
2023-02-07T06:51:10.201Z,76.17
2023-02-07T06:52:10.198Z,75.51
2023-02-07T06:53:10.210Z,75.60
2023-02-07T06:54:10.212Z,75.98
2023-02-07T06:55:10.198Z,76.73
2023-02-07T06:56:10.212Z,76.82
2023-02-07T06:57:10.196Z,76.82
2023-02-07T06:58:10.219Z,76.73
2023-02-07T06:59:10.197Z,76.17
2023-02-07T07:00:10.190Z,76.17
2023-02-07T07:01:10.199Z,76.07
2023-02-07T07:02:10.189Z,76.17
2023-02-07T07:03:10.193Z,75.98
2023-02-07T07:04:10.201Z,76.07
2023-02-07T07:05:10.191Z,75.89
2023-02-07T07:06:10.223Z,75.60
2023-02-07T07:07:10.191Z,75.79
2023-02-07T07:08:10.186Z,75.51
2023-02-07T07:09:10.191Z,74.85
2023-02-07T07:10:10.271Z,74.00
2023-02-07T07:11:10.195Z,74.10
2023-02-07T07:12:10.186Z,73.72
2023-02-07T07:13:10.187Z,73.91
2023-02-07T07:14:10.212Z,74.19
2023-02-07T07:15:10.188Z,74.47
2023-02-07T07:16:10.235Z,74.28
2023-02-07T07:17:10.184Z,74.38
2023-02-07T07:18:10.192Z,73.91
2023-02-07T07:19:10.197Z,74.19
2023-02-07T07:20:10.193Z,74.19
2023-02-07T07:21:10.183Z,74.66
2023-02-07T07:22:10.188Z,74.47
2023-02-07T07:23:10.182Z,74.76
2023-02-07T07:24:10.184Z,74.66
2023-02-07T07:25:10.178Z,74.66
2023-02-07T07:26:10.185Z,75.23
2023-02-07T07:27:10.176Z,74.66
2023-02-07T07:28:10.223Z,74.19
2023-02-07T07:29:10.176Z,74.38
2023-02-07T07:30:10.746Z,74.10
2023-02-07T07:31:10.240Z,73.72
2023-02-07T07:32:10.177Z,73.91
2023-02-07T07:33:10.181Z,73.72
2023-02-07T07:34:10.175Z,73.62
2023-02-07T07:35:10.175Z,73.72
2023-02-07T07:36:10.176Z,73.53
2023-02-07T07:37:10.170Z,73.53
2023-02-07T07:38:10.172Z,73.43
2023-02-07T07:39:10.166Z,73.62
2023-02-07T07:40:10.188Z,73.34
2023-02-07T07:41:10.166Z,73.62
2023-02-07T07:42:10.166Z,73.72
2023-02-07T07:43:10.173Z,73.06
2023-02-07T07:44:10.166Z,72.87
2023-02-07T07:45:10.189Z,72.11
2023-02-07T07:46:10.200Z,72.30
2023-02-07T07:47:10.161Z,71.83
2023-02-07T07:48:10.201Z,70.79
2023-02-07T07:49:10.158Z,70.51
2023-02-07T07:50:10.160Z,70.61
2023-02-07T07:51:10.167Z,71.17
2023-02-07T07:52:10.160Z,71.73
2023-02-07T07:53:10.155Z,71.83
2023-02-07T07:54:10.159Z,72.30
2023-02-07T07:55:10.164Z,72.58
2023-02-07T07:56:10.166Z,72.77
2023-02-07T07:57:10.162Z,73.25
2023-02-07T07:58:10.158Z,72.58
2023-02-07T07:59:20.097Z,72.11
2023-02-07T08:00:10.156Z,71.64
2023-02-07T08:01:10.232Z,71.26
2023-02-07T08:02:10.171Z,71.26
2023-02-07T08:03:10.150Z,71.77
2023-02-07T08:04:10.208Z,71.77
2023-02-07T08:05:12.553Z,71.92
2023-02-07T08:06:10.173Z,71.83
2023-02-07T08:07:10.169Z,71.87
2023-02-07T08:08:10.158Z,71.40
2023-02-07T08:09:10.150Z,71.58
2023-02-07T08:10:10.162Z,71.30
2023-02-07T08:11:10.151Z,71.40
2023-02-07T08:12:10.153Z,71.30
2023-02-07T08:13:10.151Z,71.77
2023-02-07T08:14:10.151Z,71.64
2023-02-07T08:15:10.144Z,71.49
2023-02-07T08:16:10.172Z,71.77
2023-02-07T08:17:10.160Z,71.87
2023-02-07T08:18:10.175Z,72.21
2023-02-07T08:19:10.167Z,72.58
2023-02-07T08:20:10.155Z,72.58
2023-02-07T08:21:10.148Z,72.49
2023-02-07T08:22:10.156Z,72.62
2023-02-07T08:23:10.151Z,72.62
2023-02-07T08:24:10.153Z,71.96
2023-02-07T08:25:10.144Z,70.92
2023-02-07T08:26:10.150Z,70.07
2023-02-07T08:27:10.144Z,69.42
2023-02-07T08:28:10.228Z,69.23
2023-02-07T08:29:10.143Z,69.13
2023-02-07T08:30:10.159Z,70.26
2023-02-07T08:31:10.150Z,70.73
2023-02-07T08:32:10.171Z,71.30
2023-02-07T08:33:10.145Z,73.47
2023-02-07T08:34:10.167Z,72.38
2023-02-07T08:35:10.147Z,70.68
2023-02-07T08:36:10.152Z,70.20
2023-02-07T08:37:10.149Z,71.81
2023-02-07T08:38:10.149Z,73.98
2023-02-07T08:39:10.147Z,73.03
2023-02-07T08:40:10.153Z,72.56
2023-02-07T08:41:10.145Z,72.75
2023-02-07T08:42:10.148Z,72.66
2023-02-07T08:43:10.146Z,74.26
2023-02-07T08:44:10.151Z,72.56
2023-02-07T08:45:10.183Z,71.15
2023-02-07T08:46:10.306Z,69.07
2023-02-07T08:47:10.155Z,66.90
2023-02-07T08:48:10.157Z,67.38
2023-02-07T08:49:10.154Z,70.39
2023-02-07T08:50:10.168Z,71.15
2023-02-07T08:51:10.148Z,71.91
2023-02-07T08:52:10.152Z,72.09
2023-02-07T08:53:10.152Z,72.85
2023-02-07T08:54:10.164Z,72.19
2023-02-07T08:55:10.158Z,72.47
2023-02-07T08:56:10.155Z,71.43
2023-02-07T08:57:10.155Z,70.49
2023-02-07T08:58:10.157Z,70.77
2023-02-07T08:59:10.156Z,70.96
2023-02-07T09:00:10.157Z,70.20
2023-02-07T09:01:10.169Z,70.30
2023-02-07T09:02:10.186Z,68.88
2023-02-07T09:03:10.161Z,68.70
2023-02-07T09:04:10.165Z,69.26
2023-02-07T09:05:10.158Z,73.13
2023-02-07T09:06:10.205Z,71.06
2023-02-07T09:07:10.161Z,72.41
2023-02-07T09:08:10.169Z,70.24
2023-02-07T09:09:10.162Z,68.44
2023-02-07T09:10:10.165Z,67.03
2023-02-07T09:11:10.218Z,66.18
2023-02-07T09:12:10.169Z,68.07
2023-02-07T09:13:10.169Z,67.60
2023-02-07T09:14:10.267Z,68.35
2023-02-07T09:15:10.169Z,68.35
2023-02-07T09:16:10.179Z,67.41
2023-02-07T09:17:10.168Z,66.75
2023-02-07T09:18:10.175Z,66.47
2023-02-07T09:19:10.172Z,65.99
2023-02-07T09:20:10.172Z,66.75
2023-02-07T09:21:10.177Z,67.60
2023-02-07T09:22:10.215Z,67.69
2023-02-07T09:23:10.175Z,66.37
2023-02-07T09:24:10.188Z,64.86
2023-02-07T09:25:10.181Z,64.76
2023-02-07T09:26:10.182Z,65.05
2023-02-07T09:27:10.186Z,65.99
2023-02-07T09:28:10.290Z,65.71
2023-02-07T09:29:10.190Z,64.48
2023-02-07T09:30:10.216Z,63.92
2023-02-07T09:31:10.290Z,65.80
2023-02-07T09:32:10.193Z,65.05
2023-02-07T09:33:10.188Z,63.35
2023-02-07T09:34:10.194Z,64.58
2023-02-07T09:35:10.192Z,66.56
2023-02-07T09:36:10.194Z,65.90
2023-02-07T09:37:10.197Z,64.48
2023-02-07T09:38:10.329Z,67.79
2023-02-07T09:39:10.201Z,67.69
2023-02-07T09:40:10.199Z,67.22
2023-02-07T09:41:10.200Z,65.80
2023-02-07T09:42:10.208Z,65.71
2023-02-07T09:43:10.359Z,66.18
2023-02-07T09:44:10.410Z,68.76
2023-02-07T09:45:10.403Z,67.44
2023-02-07T09:46:10.282Z,66.97
2023-02-07T09:47:10.211Z,67.16
2023-02-07T09:48:11.149Z,67.72
2023-02-07T09:49:10.209Z,65.93
2023-02-07T09:50:10.237Z,67.82
2023-02-07T09:51:10.215Z,68.48
2023-02-07T09:52:10.219Z,67.16
2023-02-07T09:53:10.217Z,64.51
2023-02-07T09:54:10.246Z,66.03
2023-02-07T09:55:10.220Z,66.88
2023-02-07T09:56:10.238Z,65.55
2023-02-07T09:57:10.236Z,64.61
2023-02-07T09:58:10.229Z,63.29
2023-02-07T09:59:10.244Z,62.53
2023-02-07T10:00:10.284Z,62.75
2023-02-07T10:01:10.273Z,64.26
2023-02-07T10:02:10.253Z,62.25
2023-02-07T10:03:10.235Z,62.81
2023-02-07T10:04:10.236Z,63.79
2023-02-07T10:05:10.238Z,64.17
2023-02-07T10:06:18.316Z,62.47
2023-02-07T10:07:10.246Z,60.55
2023-02-07T10:08:10.246Z,60.27
2023-02-07T10:09:10.245Z,61.87
2023-02-07T10:10:10.266Z,63.51
2023-02-07T10:11:10.602Z,64.83
2023-02-07T10:12:10.263Z,63.98
2023-02-07T10:13:10.253Z,64.54
2023-02-07T10:14:10.277Z,62.66
2023-02-07T10:15:10.263Z,62.56
2023-02-07T10:16:10.545Z,62.75
2023-02-07T10:17:14.071Z,61.33
2023-02-07T10:18:10.271Z,61.90
2023-02-07T10:19:10.280Z,60.86
2023-02-07T10:20:10.288Z,61.33
2023-02-07T10:21:10.278Z,61.05
2023-02-07T10:22:10.280Z,61.36
2023-02-07T10:23:10.296Z,62.31
2023-02-07T10:24:10.325Z,63.07
2023-02-07T10:25:10.316Z,60.58
2023-02-07T10:26:10.312Z,60.96
2023-02-07T10:27:10.306Z,60.01
2023-02-07T10:28:10.330Z,59.06
2023-02-07T10:29:10.303Z,59.19
2023-02-07T10:30:10.305Z,61.18
2023-02-07T10:31:10.446Z,61.83
2023-02-07T10:32:10.312Z,60.33
2023-02-07T10:33:10.324Z,59.28
2023-02-07T10:34:10.336Z,57.58
2023-02-07T10:35:10.322Z,58.12
2023-02-07T10:36:10.334Z,59.09
2023-02-07T10:37:10.329Z,59.66
2023-02-07T10:38:10.347Z,60.11
2023-02-07T10:39:10.336Z,58.97
2023-02-07T10:40:10.346Z,59.54
2023-02-07T10:41:10.343Z,60.49
2023-02-07T10:42:10.372Z,59.35
2023-02-07T10:43:10.404Z,59.57
2023-02-07T10:44:10.466Z,59.95
2023-02-07T10:45:10.360Z,58.81
2023-02-07T10:46:10.430Z,59.19
2023-02-07T10:47:10.365Z,58.91
2023-02-07T10:48:10.379Z,59.16
2023-02-07T10:49:10.374Z,60.80
2023-02-07T10:50:12.044Z,59.66
2023-02-07T10:51:10.399Z,59.44
2023-02-07T10:52:10.392Z,60.11
2023-02-07T10:53:10.390Z,59.44
2023-02-07T10:54:10.408Z,59.44
2023-02-07T10:55:10.404Z,61.33
2023-02-07T10:56:10.410Z,64.58
2023-02-07T10:57:10.407Z,64.67
2023-02-07T10:58:22.486Z,64.04
2023-02-07T10:59:10.415Z,63.10
2023-02-07T11:00:10.423Z,61.21
2023-02-07T11:01:10.433Z,61.11
2023-02-07T11:02:10.432Z,58.34
2023-02-07T11:03:10.435Z,56.67
2023-02-07T11:04:10.439Z,56.01
2023-02-07T11:05:10.477Z,57.23
2023-02-07T11:06:10.445Z,57.04
2023-02-07T11:07:10.463Z,56.82
2023-02-07T11:08:10.457Z,58.62
2023-02-07T11:09:10.460Z,59.28
2023-02-07T11:10:10.467Z,60.23
2023-02-07T11:11:10.466Z,61.83
2023-02-07T11:12:10.491Z,61.27
2023-02-07T11:13:10.474Z,61.83
2023-02-07T11:14:10.510Z,61.36
2023-02-07T11:15:10.486Z,60.70
2023-02-07T11:16:10.531Z,58.81
2023-02-07T11:17:10.498Z,59.28
2023-02-07T11:18:10.500Z,59.47
2023-02-07T11:19:10.505Z,60.33
2023-02-07T11:20:10.507Z,59.19
2023-02-07T11:21:10.510Z,59.47
2023-02-07T11:22:10.519Z,59.76
2023-02-07T11:23:10.519Z,61.87
2023-02-07T11:24:10.525Z,59.03
2023-02-07T11:25:10.537Z,58.65
2023-02-07T11:26:10.535Z,59.03
2023-02-07T11:27:10.543Z,59.03
2023-02-07T11:28:10.603Z,56.01
2023-02-07T11:29:10.547Z,55.63
2023-02-07T11:30:10.568Z,55.34
2023-02-07T11:31:10.718Z,56.10
2023-02-07T11:32:10.566Z,57.71
2023-02-07T11:33:10.566Z,58.47
2023-02-07T11:34:10.568Z,57.61
2023-02-07T11:35:10.599Z,57.52
2023-02-07T11:36:10.591Z,58.84
2023-02-07T11:37:10.585Z,55.91
2023-02-07T11:38:10.597Z,55.63
2023-02-07T11:39:10.592Z,55.91
2023-02-07T11:40:10.611Z,56.57
2023-02-07T11:41:10.607Z,56.98
2023-02-07T11:42:10.609Z,55.87
2023-02-07T11:43:10.620Z,54.35
2023-02-07T11:44:10.614Z,55.40
2023-02-07T11:45:10.627Z,52.37
2023-02-07T11:46:10.782Z,51.96
2023-02-07T11:47:10.631Z,52.65
2023-02-07T11:48:10.634Z,54.64
2023-02-07T11:49:10.642Z,54.64
2023-02-07T11:50:10.645Z,55.11
2023-02-07T11:51:10.654Z,54.14
2023-02-07T11:52:10.656Z,53.85
2023-02-07T11:53:10.664Z,53.83
2023-02-07T11:54:10.667Z,53.92
2023-02-07T11:55:10.679Z,54.21
2023-02-07T11:56:10.819Z,53.52
2023-02-07T11:57:10.696Z,54.15
2023-02-07T11:58:10.692Z,55.00
2023-02-07T11:59:10.703Z,55.94
2023-02-07T12:00:10.706Z,56.82
2023-02-07T12:01:10.711Z,56.16
2023-02-07T12:02:10.795Z,55.88
2023-02-07T12:03:10.731Z,56.07
2023-02-07T12:04:10.723Z,56.07
2023-02-07T12:05:10.756Z,55.98
2023-02-07T12:06:10.738Z,55.31
2023-02-07T12:07:10.755Z,55.91
2023-02-07T12:08:10.758Z,55.34
2023-02-07T12:09:10.769Z,54.68
2023-02-07T12:10:10.771Z,56.38
2023-02-07T12:11:10.765Z,56.10
2023-02-07T12:12:10.776Z,54.96
2023-02-07T12:13:10.786Z,54.96
2023-02-07T12:14:10.776Z,53.83
2023-02-07T12:15:10.783Z,52.57
2023-02-07T12:16:10.807Z,54.11
2023-02-07T12:17:10.801Z,54.39
2023-02-07T12:18:10.886Z,53.17
2023-02-07T12:19:10.808Z,52.86
2023-02-07T12:20:10.806Z,53.64
2023-02-07T12:21:10.819Z,53.74
2023-02-07T12:22:10.818Z,52.69
2023-02-07T12:23:35.565Z,51.93
2023-02-07T12:24:10.829Z,52.62
2023-02-07T12:25:10.835Z,51.39
2023-02-07T12:26:10.838Z,50.23
2023-02-07T12:27:10.847Z,50.23
2023-02-07T12:28:10.873Z,48.82
2023-02-07T12:29:13.928Z,49.76
2023-02-07T12:30:10.879Z,51.01
2023-02-07T12:31:10.950Z,51.01
2023-02-07T12:32:10.952Z,50.82
2023-02-07T12:33:10.885Z,52.34
2023-02-07T12:34:10.919Z,52.94
2023-02-07T12:35:10.901Z,51.61
2023-02-07T12:36:10.895Z,51.99
2023-02-07T12:37:10.901Z,49.31
2023-02-07T12:38:10.905Z,48.74
2023-02-07T12:39:10.913Z,48.82
2023-02-07T12:40:10.919Z,49.22
2023-02-07T12:41:10.925Z,50.82
2023-02-07T12:42:10.929Z,50.47
2023-02-07T12:43:10.941Z,50.78
2023-02-07T12:44:10.942Z,49.67
2023-02-07T12:45:10.950Z,48.25
2023-02-07T12:46:10.964Z,46.33
2023-02-07T12:47:10.963Z,45.24
2023-02-07T12:48:11.004Z,45.53
2023-02-07T12:49:10.976Z,47.72
2023-02-07T12:50:11.006Z,48.96
2023-02-07T12:51:10.990Z,47.63
2023-02-07T12:52:11.001Z,47.63